Create Tblcommutelog Verified Points Advance Search
| # | Trip ID | Id Commuter | Trip Date | Trip Num | Current Lat | Current Lng | Delta Distance | Current Time | Activity | Activity Confidence | Current Speed | |
|---|---|---|---|---|---|---|---|---|---|---|---|---|
| 73461 | 250506_698742_16447752_0840 | 698742 | (not set) | (not set) | 38.881299849771 | -77.033513335668 | 12.5688 | 2025-05-06 13:14:57.498 | in_vehicle | 100 | 6.1691417740306 | |
| 73462 | 250506_753953_16495306_0840 | 753953 | (not set) | (not set) | 38.901296402226 | -77.042469559519 | 7.1003 | 2025-05-06 13:14:58.952 | in_vehicle | 100 | -0.44703925898772 | |
| 73463 | 250506_782103_16513469_0750 | 782103 | (not set) | (not set) | 38.993524212011 | -76.871028542983 | 12.6258 | 2025-05-06 13:15:00.347 | on_bicycle | 100 | 3.4556134719751 | |
| 73464 | 250506_780933_16509153_0810 | 780933 | (not set) | (not set) | 38.912501650409 | -76.995520457265 | 38.9119 | 2025-05-06 13:15:01.435 | in_vehicle | 100 | 3.9115935161426 | |
| 73465 | 250506_679555_16500693_0653 | 679555 | (not set) | (not set) | 38.880854727052 | -77.033831836808 | 22.7837 | 2025-05-06 13:15:01.495 | in_vehicle | 100 | 6.1512602036711 | |
| 73466 | 250506_780998_16415274_0829 | 780998 | (not set) | (not set) | 38.906990494739 | -77.087721603239 | 14.0732 | 2025-05-06 13:15:02.202 | in_vehicle | 100 | 0 | |
| 73467 | 250506_772683_16510502_0822 | 772683 | (not set) | (not set) | 38.9668099 | -76.9703826 | 6.9348 | 2025-05-06 13:16:10.246 | on_bicycle | 100 | 3.8579488050641 | |
| 73468 | 250506_679555_16500693_0653 | 679555 | (not set) | (not set) | 38.884821558551 | -77.025723546299 | 23.3309 | 2025-05-06 13:16:10.279 | in_vehicle | 100 | 5.5209348484984 | |
| 73469 | 250506_772683_16510502_0822 | 772683 | (not set) | (not set) | 38.9748538 | -76.9654767 | 7.5752 | 2025-05-06 13:16:10.315 | on_bicycle | 100 | 3.021985390757 | |
| 73470 | 250506_772683_16510502_0822 | 772683 | (not set) | (not set) | 38.9757361 | -76.9657941 | 7.6384 | 2025-05-06 13:16:10.321 | on_bicycle | 100 | 2.3424857170957 | |
| 73471 | 250506_772683_16510502_0822 | 772683 | (not set) | (not set) | 38.9684519 | -76.9685144 | 7.0919 | 2025-05-06 13:16:10.325 | on_bicycle | 100 | 3.8177152717552 | |
| 73472 | 250506_772683_16510502_0822 | 772683 | (not set) | (not set) | 38.9695594 | -76.9674947 | 7.186 | 2025-05-06 13:16:10.334 | on_bicycle | 100 | 4.4212182713886 | |
| 73473 | 250506_772683_16510502_0822 | 772683 | (not set) | (not set) | 38.976613 | -76.9661092 | 7.7012 | 2025-05-06 13:16:10.383 | on_bicycle | 100 | 2.5525941688199 | |
| 73474 | 250506_772683_16510502_0822 | 772683 | (not set) | (not set) | 38.9775677 | -76.9662538 | 7.7675 | 2025-05-06 13:16:10.385 | on_bicycle | 100 | 2.7492914427745 | |
| 73475 | 250506_772683_16510502_0822 | 772683 | (not set) | (not set) | 38.9785383 | -76.9660792 | 7.8351 | 2025-05-06 13:16:10.4 | on_bicycle | 100 | 4.0322941160693 | |
| 73476 | 250506_772683_16510502_0822 | 772683 | (not set) | (not set) | 38.9799029 | -76.9662892 | 7.9299 | 2025-05-06 13:16:10.403 | on_bicycle | 100 | 3.8490080198843 | |
| 73477 | 250506_772683_16510502_0822 | 772683 | (not set) | (not set) | 38.9812201 | -76.9657596 | 8.0252 | 2025-05-06 13:16:10.465 | on_bicycle | 100 | 3.9518270494515 | |
| 73478 | 250506_772683_16510502_0822 | 772683 | (not set) | (not set) | 38.9826271 | -76.9658246 | 8.1223 | 2025-05-06 13:16:10.489 | on_bicycle | 100 | 3.2946793387395 | |
| 73479 | 250506_772683_16510502_0822 | 772683 | (not set) | (not set) | 38.9835737 | -76.965994 | 8.1882 | 2025-05-06 13:16:10.493 | on_bicycle | 100 | 3.4690246497447 | |
| 73480 | 250506_772683_16510502_0822 | 772683 | (not set) | (not set) | 38.984689 | -76.9649013 | 8.2851 | 2025-05-06 13:16:10.517 | on_bicycle | 100 | 4.188757856715 |